sensor_id;sensor_type;location;lat;lon;timestamp;P1;durP1;ratioP1;P2;durP2;ratioP2
71914;SDS011;60387;49.994;14.660;2022-11-09T00:00:07;14.30;;;5.73;;
71914;SDS011;60387;49.994;14.660;2022-11-09T00:02:41;15.00;;;5.65;;
71914;SDS011;60387;49.994;14.660;2022-11-09T00:05:14;9.80;;;4.07;;
71914;SDS011;60387;49.994;14.660;2022-11-09T00:07:47;14.67;;;5.23;;
71914;SDS011;60387;49.994;14.660;2022-11-09T00:10:20;15.67;;;6.00;;
71914;SDS011;60387;49.994;14.660;2022-11-09T00:12:54;13.23;;;5.07;;
71914;SDS011;60387;49.994;14.660;2022-11-09T00:15:27;13.30;;;5.27;;
71914;SDS011;60387;49.994;14.660;2022-11-09T00:18:00;14.03;;;4.80;;
71914;SDS011;60387;49.994;14.660;2022-11-09T00:20:34;14.00;;;4.97;;
71914;SDS011;60387;49.994;14.660;2022-11-09T00:23:07;13.03;;;5.47;;
71914;SDS011;60387;49.994;14.660;2022-11-09T00:25:40;13.33;;;5.00;;
71914;SDS011;60387;49.994;14.660;2022-11-09T00:28:14;11.33;;;4.80;;
71914;SDS011;60387;49.994;14.660;2022-11-09T00:30:47;13.13;;;5.07;;
71914;SDS011;60387;49.994;14.660;2022-11-09T00:33:20;14.37;;;5.00;;
71914;SDS011;60387;49.994;14.660;2022-11-09T00:35:53;11.73;;;4.53;;
71914;SDS011;60387;49.994;14.660;2022-11-09T00:38:27;13.32;;;5.43;;
71914;SDS011;60387;49.994;14.660;2022-11-09T00:41:01;13.60;;;5.27;;
71914;SDS011;60387;49.994;14.660;2022-11-09T00:43:38;11.73;;;5.10;;
71914;SDS011;60387;49.994;14.660;2022-11-09T00:46:11;10.87;;;4.60;;
71914;SDS011;60387;49.994;14.660;2022-11-09T00:48:45;10.75;;;4.22;;
71914;SDS011;60387;49.994;14.660;2022-11-09T00:51:18;12.20;;;4.93;;
71914;SDS011;60387;49.994;14.660;2022-11-09T00:53:51;12.77;;;4.83;;
71914;SDS011;60387;49.994;14.660;2022-11-09T00:56:25;14.88;;;5.47;;
71914;SDS011;60387;49.994;14.660;2022-11-09T00:58:58;12.13;;;4.65;;
71914;SDS011;60387;49.994;14.660;2022-11-09T01:01:31;12.20;;;4.43;;
71914;SDS011;60387;49.994;14.660;2022-11-09T01:04:06;11.77;;;4.33;;
71914;SDS011;60387;49.994;14.660;2022-11-09T01:06:39;10.80;;;4.17;;
71914;SDS011;60387;49.994;14.660;2022-11-09T01:09:12;12.32;;;4.53;;
71914;SDS011;60387;49.994;14.660;2022-11-09T01:11:45;14.52;;;4.60;;
71914;SDS011;60387;49.994;14.660;2022-11-09T01:14:19;13.45;;;4.75;;
71914;SDS011;60387;49.994;14.660;2022-11-09T01:16:52;12.55;;;4.90;;
71914;SDS011;60387;49.994;14.660;2022-11-09T01:19:25;12.77;;;5.13;;
71914;SDS011;60387;49.994;14.660;2022-11-09T01:21:58;11.80;;;4.22;;
71914;SDS011;60387;49.994;14.660;2022-11-09T01:24:32;13.70;;;5.60;;
71914;SDS011;60387;49.994;14.660;2022-11-09T01:27:05;12.15;;;4.85;;
71914;SDS011;60387;49.994;14.660;2022-11-09T01:29:38;11.90;;;4.78;;
71914;SDS011;60387;49.994;14.660;2022-11-09T01:32:11;12.47;;;5.07;;
71914;SDS011;60387;49.994;14.660;2022-11-09T01:34:45;15.00;;;5.67;;
71914;SDS011;60387;49.994;14.660;2022-11-09T01:37:18;15.17;;;5.10;;
71914;SDS011;60387;49.994;14.660;2022-11-09T01:39:51;13.50;;;5.20;;
71914;SDS011;60387;49.994;14.660;2022-11-09T01:42:25;16.53;;;5.40;;
71914;SDS011;60387;49.994;14.660;2022-11-09T01:47:55;14.93;;;5.55;;
71914;SDS011;60387;49.994;14.660;2022-11-09T01:50:40;13.13;;;5.03;;
71914;SDS011;60387;49.994;14.660;2022-11-09T01:53:16;12.93;;;4.97;;
71914;SDS011;60387;49.994;14.660;2022-11-09T01:55:54;15.57;;;5.72;;
71914;SDS011;60387;49.994;14.660;2022-11-09T01:58:36;12.68;;;5.25;;
71914;SDS011;60387;49.994;14.660;2022-11-09T02:01:13;13.75;;;5.20;;
71914;SDS011;60387;49.994;14.660;2022-11-09T02:03:51;13.70;;;5.40;;
71914;SDS011;60387;49.994;14.660;2022-11-09T02:06:28;15.50;;;5.57;;
71914;SDS011;60387;49.994;14.660;2022-11-09T02:09:06;13.05;;;5.00;;
71914;SDS011;60387;49.994;14.660;2022-11-09T02:12:02;12.40;;;4.90;;
71914;SDS011;60387;49.994;14.660;2022-11-09T02:14:37;15.10;;;5.68;;
71914;SDS011;60387;49.994;14.660;2022-11-09T02:17:11;13.70;;;5.40;;
71914;SDS011;60387;49.994;14.660;2022-11-09T02:19:44;14.02;;;5.40;;
71914;SDS011;60387;49.994;14.660;2022-11-09T02:22:18;13.70;;;5.20;;
71914;SDS011;60387;49.994;14.660;2022-11-09T02:24:51;12.90;;;4.87;;
71914;SDS011;60387;49.994;14.660;2022-11-09T02:27:25;13.48;;;4.95;;
71914;SDS011;60387;49.994;14.660;2022-11-09T02:29:58;15.23;;;5.37;;
71914;SDS011;60387;49.994;14.660;2022-11-09T02:32:32;13.75;;;5.05;;
71914;SDS011;60387;49.994;14.660;2022-11-09T02:35:06;13.57;;;4.93;;
71914;SDS011;60387;49.994;14.660;2022-11-09T02:37:43;13.33;;;5.43;;
71914;SDS011;60387;49.994;14.660;2022-11-09T02:40:21;16.20;;;5.55;;
71914;SDS011;60387;49.994;14.660;2022-11-09T02:42:59;14.35;;;5.57;;
71914;SDS011;60387;49.994;14.660;2022-11-09T02:45:33;13.63;;;5.00;;
71914;SDS011;60387;49.994;14.660;2022-11-09T02:48:06;12.97;;;4.87;;
71914;SDS011;60387;49.994;14.660;2022-11-09T02:50:40;13.85;;;5.25;;
71914;SDS011;60387;49.994;14.660;2022-11-09T02:53:13;15.10;;;5.60;;
71914;SDS011;60387;49.994;14.660;2022-11-09T02:55:46;15.80;;;6.00;;
71914;SDS011;60387;49.994;14.660;2022-11-09T02:58:19;14.87;;;5.67;;
71914;SDS011;60387;49.994;14.660;2022-11-09T03:00:53;17.90;;;6.07;;
71914;SDS011;60387;49.994;14.660;2022-11-09T03:03:26;15.10;;;5.43;;
71914;SDS011;60387;49.994;14.660;2022-11-09T03:05:59;18.50;;;5.77;;
71914;SDS011;60387;49.994;14.660;2022-11-09T03:08:33;15.60;;;5.67;;
71914;SDS011;60387;49.994;14.660;2022-11-09T03:11:06;15.10;;;6.33;;
71914;SDS011;60387;49.994;14.660;2022-11-09T03:13:39;15.70;;;5.87;;
71914;SDS011;60387;49.994;14.660;2022-11-09T03:16:13;13.63;;;5.53;;
71914;SDS011;60387;49.994;14.660;2022-11-09T03:18:46;16.27;;;5.33;;
71914;SDS011;60387;49.994;14.660;2022-11-09T03:21:19;16.07;;;6.37;;
71914;SDS011;60387;49.994;14.660;2022-11-09T03:23:53;12.37;;;4.43;;
71914;SDS011;60387;49.994;14.660;2022-11-09T03:26:26;10.38;;;4.63;;
71914;SDS011;60387;49.994;14.660;2022-11-09T03:28:59;13.10;;;5.17;;
71914;SDS011;60387;49.994;14.660;2022-11-09T03:31:32;14.60;;;5.03;;
71914;SDS011;60387;49.994;14.660;2022-11-09T03:34:06;14.17;;;5.03;;
71914;SDS011;60387;49.994;14.660;2022-11-09T03:36:39;12.77;;;4.40;;
71914;SDS011;60387;49.994;14.660;2022-11-09T03:39:12;17.30;;;5.07;;
71914;SDS011;60387;49.994;14.660;2022-11-09T03:41:45;14.30;;;5.33;;
71914;SDS011;60387;49.994;14.660;2022-11-09T03:44:18;13.80;;;5.20;;
71914;SDS011;60387;49.994;14.660;2022-11-09T03:46:52;14.57;;;5.07;;
71914;SDS011;60387;49.994;14.660;2022-11-09T03:49:25;16.27;;;5.77;;
71914;SDS011;60387;49.994;14.660;2022-11-09T03:51:58;12.60;;;4.70;;
71914;SDS011;60387;49.994;14.660;2022-11-09T03:54:31;14.37;;;5.27;;
71914;SDS011;60387;49.994;14.660;2022-11-09T03:57:05;14.90;;;5.83;;
71914;SDS011;60387;49.994;14.660;2022-11-09T03:59:38;12.80;;;4.70;;
71914;SDS011;60387;49.994;14.660;2022-11-09T04:02:11;14.60;;;5.00;;
71914;SDS011;60387;49.994;14.660;2022-11-09T04:04:44;12.90;;;4.40;;
71914;SDS011;60387;49.994;14.660;2022-11-09T04:07:18;14.67;;;5.13;;
71914;SDS011;60387;49.994;14.660;2022-11-09T04:09:51;14.00;;;4.57;;
71914;SDS011;60387;49.994;14.660;2022-11-09T04:12:24;12.97;;;4.63;;
71914;SDS011;60387;49.994;14.660;2022-11-09T04:14:58;12.93;;;4.80;;
71914;SDS011;60387;49.994;14.660;2022-11-09T04:17:31;13.73;;;4.67;;
71914;SDS011;60387;49.994;14.660;2022-11-09T04:20:05;14.13;;;6.17;;
71914;SDS011;60387;49.994;14.660;2022-11-09T04:22:39;13.98;;;4.63;;
71914;SDS011;60387;49.994;14.660;2022-11-09T04:25:12;15.03;;;4.67;;
71914;SDS011;60387;49.994;14.660;2022-11-09T04:27:46;9.87;;;3.37;;
71914;SDS011;60387;49.994;14.660;2022-11-09T04:30:19;12.90;;;4.80;;
71914;SDS011;60387;49.994;14.660;2022-11-09T04:32:53;11.93;;;4.60;;
71914;SDS011;60387;49.994;14.660;2022-11-09T04:35:27;11.88;;;4.43;;
71914;SDS011;60387;49.994;14.660;2022-11-09T04:38:02;14.17;;;4.43;;
71914;SDS011;60387;49.994;14.660;2022-11-09T04:40:39;12.20;;;3.90;;
71914;SDS011;60387;49.994;14.660;2022-11-09T04:43:13;11.82;;;4.25;;
71914;SDS011;60387;49.994;14.660;2022-11-09T04:45:46;10.77;;;3.97;;
71914;SDS011;60387;49.994;14.660;2022-11-09T04:48:20;13.10;;;5.03;;
71914;SDS011;60387;49.994;14.660;2022-11-09T04:51:02;13.07;;;4.43;;
71914;SDS011;60387;49.994;14.660;2022-11-09T04:53:41;14.63;;;5.57;;
71914;SDS011;60387;49.994;14.660;2022-11-09T04:56:14;13.27;;;5.00;;
71914;SDS011;60387;49.994;14.660;2022-11-09T04:58:47;14.90;;;4.67;;
71914;SDS011;60387;49.994;14.660;2022-11-09T05:01:20;10.57;;;4.07;;
71914;SDS011;60387;49.994;14.660;2022-11-09T05:03:54;11.80;;;4.23;;
71914;SDS011;60387;49.994;14.660;2022-11-09T05:06:27;12.33;;;4.93;;
71914;SDS011;60387;49.994;14.660;2022-11-09T05:09:02;13.13;;;4.70;;
71914;SDS011;60387;49.994;14.660;2022-11-09T05:11:37;11.75;;;4.70;;
71914;SDS011;60387;49.994;14.660;2022-11-09T05:14:10;12.50;;;4.37;;
71914;SDS011;60387;49.994;14.660;2022-11-09T05:16:43;13.30;;;4.20;;
71914;SDS011;60387;49.994;14.660;2022-11-09T05:19:17;12.33;;;4.40;;
71914;SDS011;60387;49.994;14.660;2022-11-09T05:21:50;12.07;;;4.07;;
71914;SDS011;60387;49.994;14.660;2022-11-09T05:24:23;12.17;;;4.03;;
71914;SDS011;60387;49.994;14.660;2022-11-09T05:26:56;11.87;;;3.93;;
71914;SDS011;60387;49.994;14.660;2022-11-09T05:29:30;13.27;;;4.27;;
71914;SDS011;60387;49.994;14.660;2022-11-09T05:32:03;12.33;;;4.30;;
71914;SDS011;60387;49.994;14.660;2022-11-09T05:34:36;12.80;;;4.10;;
71914;SDS011;60387;49.994;14.660;2022-11-09T05:37:10;12.20;;;4.60;;
71914;SDS011;60387;49.994;14.660;2022-11-09T05:39:43;12.63;;;3.77;;
71914;SDS011;60387;49.994;14.660;2022-11-09T05:42:16;13.43;;;4.40;;
71914;SDS011;60387;49.994;14.660;2022-11-09T05:44:49;12.93;;;3.70;;
71914;SDS011;60387;49.994;14.660;2022-11-09T05:47:23;13.90;;;4.90;;
71914;SDS011;60387;49.994;14.660;2022-11-09T05:49:56;14.27;;;4.43;;
71914;SDS011;60387;49.994;14.660;2022-11-09T05:52:29;12.47;;;4.40;;
71914;SDS011;60387;49.994;14.660;2022-11-09T05:55:03;10.43;;;3.60;;
71914;SDS011;60387;49.994;14.660;2022-11-09T05:57:37;12.95;;;4.25;;
71914;SDS011;60387;49.994;14.660;2022-11-09T06:00:10;9.20;;;3.07;;
71914;SDS011;60387;49.994;14.660;2022-11-09T06:02:44;11.50;;;4.28;;
71914;SDS011;60387;49.994;14.660;2022-11-09T06:05:17;13.93;;;4.53;;
71914;SDS011;60387;49.994;14.660;2022-11-09T06:07:51;14.87;;;4.83;;
71914;SDS011;60387;49.994;14.660;2022-11-09T06:10:24;15.53;;;4.33;;
71914;SDS011;60387;49.994;14.660;2022-11-09T06:12:57;12.93;;;4.60;;
71914;SDS011;60387;49.994;14.660;2022-11-09T06:15:31;12.75;;;4.32;;
71914;SDS011;60387;49.994;14.660;2022-11-09T06:18:04;16.63;;;5.50;;
71914;SDS011;60387;49.994;14.660;2022-11-09T06:20:37;14.07;;;4.43;;
71914;SDS011;60387;49.994;14.660;2022-11-09T06:23:11;18.10;;;6.03;;
71914;SDS011;60387;49.994;14.660;2022-11-09T06:25:44;14.83;;;5.30;;
71914;SDS011;60387;49.994;14.660;2022-11-09T06:28:17;14.97;;;6.00;;
71914;SDS011;60387;49.994;14.660;2022-11-09T06:30:51;14.27;;;4.77;;
71914;SDS011;60387;49.994;14.660;2022-11-09T06:33:25;14.20;;;5.70;;
71914;SDS011;60387;49.994;14.660;2022-11-09T06:35:59;15.25;;;5.07;;
71914;SDS011;60387;49.994;14.660;2022-11-09T06:38:32;15.33;;;5.33;;
71914;SDS011;60387;49.994;14.660;2022-11-09T06:41:05;13.50;;;4.97;;
71914;SDS011;60387;49.994;14.660;2022-11-09T06:43:39;14.27;;;5.13;;
71914;SDS011;60387;49.994;14.660;2022-11-09T06:46:12;14.70;;;4.50;;
71914;SDS011;60387;49.994;14.660;2022-11-09T06:48:46;15.75;;;4.95;;
71914;SDS011;60387;49.994;14.660;2022-11-09T06:51:19;16.13;;;5.23;;
71914;SDS011;60387;49.994;14.660;2022-11-09T06:53:53;19.47;;;5.67;;
71914;SDS011;60387;49.994;14.660;2022-11-09T06:56:26;15.83;;;5.63;;
71914;SDS011;60387;49.994;14.660;2022-11-09T06:58:59;15.80;;;5.57;;
71914;SDS011;60387;49.994;14.660;2022-11-09T07:01:32;15.17;;;5.20;;
71914;SDS011;60387;49.994;14.660;2022-11-09T07:04:06;14.40;;;5.23;;
71914;SDS011;60387;49.994;14.660;2022-11-09T07:06:39;16.90;;;5.60;;
71914;SDS011;60387;49.994;14.660;2022-11-09T07:09:13;15.40;;;5.38;;
71914;SDS011;60387;49.994;14.660;2022-11-09T07:11:47;17.00;;;5.77;;
71914;SDS011;60387;49.994;14.660;2022-11-09T07:14:21;18.48;;;6.38;;
71914;SDS011;60387;49.994;14.660;2022-11-09T07:16:54;17.83;;;5.43;;
71914;SDS011;60387;49.994;14.660;2022-11-09T07:19:28;16.63;;;5.47;;
71914;SDS011;60387;49.994;14.660;2022-11-09T07:22:01;17.37;;;6.13;;
71914;SDS011;60387;49.994;14.660;2022-11-09T07:24:34;18.60;;;6.13;;
71914;SDS011;60387;49.994;14.660;2022-11-09T07:27:07;21.60;;;6.07;;
71914;SDS011;60387;49.994;14.660;2022-11-09T07:29:41;20.35;;;6.57;;
71914;SDS011;60387;49.994;14.660;2022-11-09T07:32:14;19.38;;;7.35;;
71914;SDS011;60387;49.994;14.660;2022-11-09T07:34:47;18.15;;;6.07;;
71914;SDS011;60387;49.994;14.660;2022-11-09T07:37:20;17.73;;;5.30;;
71914;SDS011;60387;49.994;14.660;2022-11-09T07:39:54;18.83;;;6.28;;
71914;SDS011;60387;49.994;14.660;2022-11-09T07:42:27;15.32;;;5.03;;
71914;SDS011;60387;49.994;14.660;2022-11-09T07:45:00;16.70;;;5.93;;
71914;SDS011;60387;49.994;14.660;2022-11-09T07:47:34;20.27;;;6.87;;
71914;SDS011;60387;49.994;14.660;2022-11-09T07:50:07;19.43;;;6.13;;
71914;SDS011;60387;49.994;14.660;2022-11-09T07:52:40;16.47;;;5.50;;
71914;SDS011;60387;49.994;14.660;2022-11-09T07:55:14;16.67;;;5.67;;
71914;SDS011;60387;49.994;14.660;2022-11-09T07:57:47;16.23;;;6.13;;
71914;SDS011;60387;49.994;14.660;2022-11-09T08:00:20;14.93;;;5.73;;
71914;SDS011;60387;49.994;14.660;2022-11-09T08:02:53;16.67;;;5.83;;
71914;SDS011;60387;49.994;14.660;2022-11-09T08:05:27;18.38;;;6.25;;
71914;SDS011;60387;49.994;14.660;2022-11-09T08:08:01;18.03;;;6.10;;
71914;SDS011;60387;49.994;14.660;2022-11-09T08:10:37;15.13;;;5.03;;
71914;SDS011;60387;49.994;14.660;2022-11-09T08:13:13;17.40;;;5.65;;
71914;SDS011;60387;49.994;14.660;2022-11-09T08:15:46;18.92;;;6.78;;
71914;SDS011;60387;49.994;14.660;2022-11-09T08:18:20;20.30;;;7.63;;
71914;SDS011;60387;49.994;14.660;2022-11-09T08:20:54;21.83;;;7.35;;
71914;SDS011;60387;49.994;14.660;2022-11-09T08:23:27;21.27;;;7.40;;
71914;SDS011;60387;49.994;14.660;2022-11-09T08:26:02;46.63;;;20.60;;
71914;SDS011;60387;49.994;14.660;2022-11-09T08:28:37;39.35;;;14.68;;
71914;SDS011;60387;49.994;14.660;2022-11-09T08:31:10;22.97;;;9.47;;
71914;SDS011;60387;49.994;14.660;2022-11-09T08:33:43;16.03;;;6.27;;
71914;SDS011;60387;49.994;14.660;2022-11-09T08:36:17;17.23;;;6.17;;
71914;SDS011;60387;49.994;14.660;2022-11-09T08:38:50;18.70;;;6.35;;
71914;SDS011;60387;49.994;14.660;2022-11-09T08:41:24;17.50;;;6.93;;
71914;SDS011;60387;49.994;14.660;2022-11-09T08:43:57;17.97;;;6.17;;
71914;SDS011;60387;49.994;14.660;2022-11-09T08:46:30;14.67;;;5.73;;
71914;SDS011;60387;49.994;14.660;2022-11-09T08:49:03;18.13;;;5.47;;
71914;SDS011;60387;49.994;14.660;2022-11-09T08:51:37;17.63;;;5.93;;
71914;SDS011;60387;49.994;14.660;2022-11-09T08:54:10;17.13;;;5.97;;
71914;SDS011;60387;49.994;14.660;2022-11-09T08:56:43;14.47;;;5.50;;
71914;SDS011;60387;49.994;14.660;2022-11-09T08:59:16;15.83;;;5.73;;
71914;SDS011;60387;49.994;14.660;2022-11-09T09:01:50;14.77;;;5.30;;
71914;SDS011;60387;49.994;14.660;2022-11-09T09:04:23;17.73;;;6.03;;
71914;SDS011;60387;49.994;14.660;2022-11-09T09:06:56;15.47;;;5.60;;
71914;SDS011;60387;49.994;14.660;2022-11-09T09:09:30;18.93;;;7.67;;
71914;SDS011;60387;49.994;14.660;2022-11-09T09:12:04;15.87;;;6.77;;
71914;SDS011;60387;49.994;14.660;2022-11-09T09:14:38;16.90;;;5.43;;
71914;SDS011;60387;49.994;14.660;2022-11-09T09:17:12;15.80;;;6.20;;
71914;SDS011;60387;49.994;14.660;2022-11-09T09:19:45;14.03;;;5.17;;
71914;SDS011;60387;49.994;14.660;2022-11-09T09:22:18;15.63;;;6.20;;
71914;SDS011;60387;49.994;14.660;2022-11-09T09:24:51;16.15;;;6.07;;
71914;SDS011;60387;49.994;14.660;2022-11-09T09:27:25;14.32;;;5.72;;
71914;SDS011;60387;49.994;14.660;2022-11-09T09:29:58;16.23;;;5.70;;
71914;SDS011;60387;49.994;14.660;2022-11-09T09:32:31;16.43;;;5.70;;
71914;SDS011;60387;49.994;14.660;2022-11-09T09:35:05;14.73;;;5.73;;
71914;SDS011;60387;49.994;14.660;2022-11-09T09:37:38;17.43;;;6.67;;
71914;SDS011;60387;49.994;14.660;2022-11-09T09:43:13;15.75;;;6.75;;
71914;SDS011;60387;49.994;14.660;2022-11-09T09:45:57;15.18;;;6.32;;
71914;SDS011;60387;49.994;14.660;2022-11-09T09:48:37;14.30;;;5.43;;
71914;SDS011;60387;49.994;14.660;2022-11-09T09:51:18;14.93;;;5.77;;
71914;SDS011;60387;49.994;14.660;2022-11-09T09:54:08;12.10;;;5.28;;
71914;SDS011;60387;49.994;14.660;2022-11-09T09:56:47;16.45;;;6.80;;
71914;SDS011;60387;49.994;14.660;2022-11-09T09:59:25;15.68;;;6.68;;
71914;SDS011;60387;49.994;14.660;2022-11-09T10:05:07;14.77;;;6.43;;
71914;SDS011;60387;49.994;14.660;2022-11-09T10:08:02;14.50;;;6.43;;
71914;SDS011;60387;49.994;14.660;2022-11-09T10:25:22;14.23;;;5.30;;
71914;SDS011;60387;49.994;14.660;2022-11-09T10:27:58;11.93;;;5.22;;
71914;SDS011;60387;49.994;14.660;2022-11-09T10:30:34;11.05;;;4.72;;
71914;SDS011;60387;49.994;14.660;2022-11-09T10:33:12;12.63;;;6.00;;
71914;SDS011;60387;49.994;14.660;2022-11-09T10:35:57;11.25;;;4.93;;
71914;SDS011;60387;49.994;14.660;2022-11-09T10:38:55;12.23;;;5.67;;
71914;SDS011;60387;49.994;14.660;2022-11-09T10:41:33;13.98;;;5.95;;
71914;SDS011;60387;49.994;14.660;2022-11-09T10:44:15;12.05;;;5.30;;
71914;SDS011;60387;49.994;14.660;2022-11-09T10:47:00;10.48;;;4.68;;
71914;SDS011;60387;49.994;14.660;2022-11-09T10:49:45;11.70;;;4.97;;
71914;SDS011;60387;49.994;14.660;2022-11-09T10:52:34;12.87;;;5.07;;
71914;SDS011;60387;49.994;14.660;2022-11-09T10:55:15;11.47;;;4.70;;
71914;SDS011;60387;49.994;14.660;2022-11-09T10:58:00;12.10;;;4.70;;
71914;SDS011;60387;49.994;14.660;2022-11-09T11:03:35;14.05;;;4.82;;
71914;SDS011;60387;49.994;14.660;2022-11-09T11:08:51;9.90;;;4.50;;
71914;SDS011;60387;49.994;14.660;2022-11-09T11:11:44;11.07;;;4.47;;
71914;SDS011;60387;49.994;14.660;2022-11-09T11:14:20;11.38;;;4.50;;
71914;SDS011;60387;49.994;14.660;2022-11-09T11:17:01;10.53;;;4.63;;
71914;SDS011;60387;49.994;14.660;2022-11-09T11:19:35;9.73;;;4.32;;
71914;SDS011;60387;49.994;14.660;2022-11-09T11:30:19;10.30;;;4.47;;
71914;SDS011;60387;49.994;14.660;2022-11-09T11:33:01;10.10;;;4.70;;
71914;SDS011;60387;49.994;14.660;2022-11-09T11:35:58;10.50;;;4.40;;
71914;SDS011;60387;49.994;14.660;2022-11-09T12:07:29;14.93;;;6.15;;
71914;SDS011;60387;49.994;14.660;2022-11-09T12:18:37;9.07;;;3.70;;
71914;SDS011;60387;49.994;14.660;2022-11-09T12:21:41;8.88;;;3.83;;
71914;SDS011;60387;49.994;14.660;2022-11-09T12:24:26;8.98;;;3.83;;
71914;SDS011;60387;49.994;14.660;2022-11-09T12:32:52;10.10;;;3.78;;
71914;SDS011;60387;49.994;14.660;2022-11-09T12:38:26;9.30;;;3.30;;
71914;SDS011;60387;49.994;14.660;2022-11-09T12:41:06;8.65;;;3.38;;
71914;SDS011;60387;49.994;14.660;2022-11-09T12:43:47;8.50;;;3.60;;
71914;SDS011;60387;49.994;14.660;2022-11-09T12:46:28;8.07;;;3.63;;
71914;SDS011;60387;49.994;14.660;2022-11-09T12:49:08;9.05;;;3.55;;
71914;SDS011;60387;49.994;14.660;2022-11-09T12:52:12;9.73;;;3.30;;
71914;SDS011;60387;49.994;14.660;2022-11-09T12:54:48;8.95;;;4.05;;
71914;SDS011;60387;49.994;14.660;2022-11-09T12:57:25;10.90;;;4.10;;
71914;SDS011;60387;49.994;14.660;2022-11-09T13:00:02;10.52;;;4.20;;
71914;SDS011;60387;49.994;14.660;2022-11-09T13:02:38;10.05;;;4.35;;
71914;SDS011;60387;49.994;14.660;2022-11-09T13:05:34;9.30;;;4.07;;
71914;SDS011;60387;49.994;14.660;2022-11-09T13:08:14;9.02;;;3.80;;
71914;SDS011;60387;49.994;14.660;2022-11-09T13:11:06;8.50;;;4.05;;
71914;SDS011;60387;49.994;14.660;2022-11-09T13:13:41;9.65;;;4.22;;
71914;SDS011;60387;49.994;14.660;2022-11-09T13:16:31;12.47;;;4.87;;
71914;SDS011;60387;49.994;14.660;2022-11-09T13:19:07;9.85;;;4.32;;
71914;SDS011;60387;49.994;14.660;2022-11-09T13:21:40;10.70;;;4.80;;
71914;SDS011;60387;49.994;14.660;2022-11-09T13:40:54;10.57;;;4.68;;
71914;SDS011;60387;49.994;14.660;2022-11-09T13:43:30;12.70;;;5.03;;
71914;SDS011;60387;49.994;14.660;2022-11-09T13:49:29;11.43;;;4.97;;
71914;SDS011;60387;49.994;14.660;2022-11-09T13:58:15;11.25;;;5.15;;
71914;SDS011;60387;49.994;14.660;2022-11-09T14:00:55;10.93;;;5.25;;
71914;SDS011;60387;49.994;14.660;2022-11-09T14:03:28;12.50;;;5.50;;
71914;SDS011;60387;49.994;14.660;2022-11-09T14:06:02;11.63;;;5.70;;
71914;SDS011;60387;49.994;14.660;2022-11-09T14:08:35;12.27;;;6.10;;
71914;SDS011;60387;49.994;14.660;2022-11-09T14:11:28;13.23;;;5.67;;
71914;SDS011;60387;49.994;14.660;2022-11-09T14:20:40;12.07;;;5.63;;
71914;SDS011;60387;49.994;14.660;2022-11-09T14:23:21;12.68;;;6.30;;
71914;SDS011;60387;49.994;14.660;2022-11-09T14:26:15;13.07;;;5.73;;
71914;SDS011;60387;49.994;14.660;2022-11-09T14:28:50;11.30;;;5.50;;
71914;SDS011;60387;49.994;14.660;2022-11-09T14:31:24;14.47;;;6.40;;
71914;SDS011;60387;49.994;14.660;2022-11-09T14:34:00;12.57;;;6.05;;
71914;SDS011;60387;49.994;14.660;2022-11-09T14:36:35;13.70;;;6.60;;
71914;SDS011;60387;49.994;14.660;2022-11-09T14:39:25;16.37;;;7.13;;
71914;SDS011;60387;49.994;14.660;2022-11-09T14:42:02;15.68;;;6.03;;
71914;SDS011;60387;49.994;14.660;2022-11-09T14:44:41;12.40;;;5.53;;
71914;SDS011;60387;49.994;14.660;2022-11-09T14:47:19;13.75;;;6.40;;
71914;SDS011;60387;49.994;14.660;2022-11-09T14:50:00;16.70;;;6.83;;
71914;SDS011;60387;49.994;14.660;2022-11-09T14:52:34;15.18;;;6.82;;
71914;SDS011;60387;49.994;14.660;2022-11-09T14:55:11;24.50;;;12.43;;
71914;SDS011;60387;49.994;14.660;2022-11-09T14:57:46;50.30;;;20.50;;
71914;SDS011;60387;49.994;14.660;2022-11-09T15:03:19;25.08;;;14.10;;
71914;SDS011;60387;49.994;14.660;2022-11-09T15:06:04;12.98;;;6.53;;
71914;SDS011;60387;49.994;14.660;2022-11-09T15:08:51;13.10;;;5.55;;
71914;SDS011;60387;49.994;14.660;2022-11-09T15:11:34;17.87;;;7.20;;
71914;SDS011;60387;49.994;14.660;2022-11-09T15:14:28;15.30;;;6.43;;
71914;SDS011;60387;49.994;14.660;2022-11-09T15:19:56;13.80;;;5.47;;
71914;SDS011;60387;49.994;14.660;2022-11-09T15:33:25;14.98;;;6.82;;
71914;SDS011;60387;49.994;14.660;2022-11-09T15:36:30;15.43;;;5.97;;
71914;SDS011;60387;49.994;14.660;2022-11-09T15:39:11;13.13;;;6.03;;
71914;SDS011;60387;49.994;14.660;2022-11-09T15:41:48;25.40;;;14.30;;
71914;SDS011;60387;49.994;14.660;2022-11-09T15:44:22;14.13;;;6.78;;
71914;SDS011;60387;49.994;14.660;2022-11-09T15:46:55;15.97;;;6.87;;
71914;SDS011;60387;49.994;14.660;2022-11-09T15:49:28;14.83;;;6.07;;
71914;SDS011;60387;49.994;14.660;2022-11-09T15:52:01;15.27;;;6.93;;
71914;SDS011;60387;49.994;14.660;2022-11-09T15:54:35;16.27;;;7.10;;
71914;SDS011;60387;49.994;14.660;2022-11-09T15:57:10;16.03;;;7.03;;
71914;SDS011;60387;49.994;14.660;2022-11-09T15:59:48;17.20;;;7.20;;
71914;SDS011;60387;49.994;14.660;2022-11-09T16:02:22;17.33;;;8.30;;
71914;SDS011;60387;49.994;14.660;2022-11-09T16:04:55;19.90;;;8.70;;
71914;SDS011;60387;49.994;14.660;2022-11-09T16:07:29;20.43;;;8.50;;
71914;SDS011;60387;49.994;14.660;2022-11-09T16:10:02;24.43;;;11.03;;
71914;SDS011;60387;49.994;14.660;2022-11-09T16:12:36;24.90;;;10.37;;
71914;SDS011;60387;49.994;14.660;2022-11-09T16:15:09;21.55;;;9.27;;
71914;SDS011;60387;49.994;14.660;2022-11-09T16:17:43;20.73;;;9.80;;
71914;SDS011;60387;49.994;14.660;2022-11-09T16:20:16;21.03;;;9.73;;
71914;SDS011;60387;49.994;14.660;2022-11-09T16:22:50;20.47;;;11.47;;
71914;SDS011;60387;49.994;14.660;2022-11-09T16:25:23;22.50;;;10.32;;
71914;SDS011;60387;49.994;14.660;2022-11-09T16:27:57;20.30;;;9.30;;
71914;SDS011;60387;49.994;14.660;2022-11-09T16:30:31;20.37;;;8.97;;
71914;SDS011;60387;49.994;14.660;2022-11-09T16:33:04;18.50;;;9.05;;
71914;SDS011;60387;49.994;14.660;2022-11-09T16:35:37;29.53;;;10.90;;
71914;SDS011;60387;49.994;14.660;2022-11-09T16:38:11;21.60;;;9.73;;
71914;SDS011;60387;49.994;14.660;2022-11-09T16:40:44;22.13;;;9.07;;
71914;SDS011;60387;49.994;14.660;2022-11-09T16:43:17;23.87;;;9.80;;
71914;SDS011;60387;49.994;14.660;2022-11-09T16:45:50;21.97;;;9.17;;
71914;SDS011;60387;49.994;14.660;2022-11-09T16:48:24;25.07;;;11.17;;
71914;SDS011;60387;49.994;14.660;2022-11-09T16:50:57;28.63;;;12.97;;
71914;SDS011;60387;49.994;14.660;2022-11-09T16:53:30;27.37;;;12.27;;
71914;SDS011;60387;49.994;14.660;2022-11-09T16:56:04;30.40;;;12.93;;
71914;SDS011;60387;49.994;14.660;2022-11-09T16:58:37;27.20;;;12.03;;
71914;SDS011;60387;49.994;14.660;2022-11-09T17:01:10;22.95;;;10.70;;
71914;SDS011;60387;49.994;14.660;2022-11-09T17:03:43;24.07;;;11.20;;
71914;SDS011;60387;49.994;14.660;2022-11-09T17:06:17;21.37;;;10.20;;
71914;SDS011;60387;49.994;14.660;2022-11-09T17:08:54;26.53;;;11.77;;
71914;SDS011;60387;49.994;14.660;2022-11-09T17:11:28;26.35;;;11.88;;
71914;SDS011;60387;49.994;14.660;2022-11-09T17:14:01;25.00;;;11.73;;
71914;SDS011;60387;49.994;14.660;2022-11-09T17:16:35;26.37;;;11.87;;
71914;SDS011;60387;49.994;14.660;2022-11-09T17:19:08;24.67;;;11.77;;
71914;SDS011;60387;49.994;14.660;2022-11-09T17:21:42;26.27;;;11.50;;